Manila Express — VRCX7 — position and weather

sailwx.info

Track history (hours):
 
Tides and Currents Weather Stations Pressure Air Temp Water Temp Dewpoint Dewpoint Depression Visibility Wind Speed Wind Dir Waves Ship Positions

Manila Express

Last reported at 2017-May-20 00:38 UTC. Time now 2017-May-23 07:01 UTC.
Position N 27°49' W 013°44'.

Length 260 m; draft 7.4 m.

Type: Cargo ship. MMSI: 477830800.

Date/timePositionNaut miles runAvg speedWind from/ knotsBaromVisibWave heightAir tempDewpointWater temp
2017-May-20 00:38N 27°49' W 013°44'213.2
2017-May-20 00:30N 27°51' W 013°43'1113.2
2017-May-19 23:40N 28°00' W 013°37'213.5
2017-May-19 23:29N 28°02' W 013°35'713.4
2017-May-19 23:00N 28°08' W 013°31'713.2
2017-May-19 22:30N 28°14' W 013°27'813.1
2017-May-19 21:53N 28°20' W 013°22'2013.0
2017-May-19 20:20N 28°37' W 013°10'18912.6
2017-May-19 05:22N 31°18' W 011°15'39712.0
2017-May-17 20:09N 35°58' W 005°36'110.0
2017-May-17 20:00N 35°58' W 005°35'510.5
2017-May-17 19:31N 36°00' W 005°29'5 9.8
2017-May-17 19:00N 36°03' W 005°24'510.4
2017-May-17 18:31N 36°08' W 005°24'1 1.7
2017-May-17 17:42N 36°09' W 005°25'0 0.0
2017-May-17 05:35N 36°09' W 005°25'0 0.1
2017-May-17 05:25N 36°09' W 005°25'0 0.5
2017-May-17 05:00N 36°09' W 005°25'2 4.3
2017-May-17 04:30N 36°07' W 005°24'3 5.0
2017-May-17 04:00N 36°05' W 005°22'612.8
2017-May-17 03:30N 36°05' W 005°14'713.8
2017-May-17 03:00N 36°06' W 005°06'916.6
2017-May-17 02:28N 36°07' W 004°54'20419.9
2017-May-16 16:11N 36°45' W 000°45'621.0
2017-May-16 15:54N 36°46' W 000°38'3120.5
2017-May-16 14:24N 36°54' W 000°00'1213.1
2017-May-16 13:30N 36°56' E 000°14'1019.4
2017-May-16 13:00N 36°59' E 000°26'1019.6
2017-May-16 12:30N 37°01' E 000°38'1019.9
2017-May-16 12:00N 37°04' E 000°50'1019.7
2017-May-16 11:30N 37°06' E 001°02'1019.3
2017-May-16 11:00N 37°08' E 001°14'919.2
2017-May-16 10:30N 37°10' E 001°25'1019.2
2017-May-16 10:00N 37°12' E 001°37'1019.3
2017-May-16 09:30N 37°14' E 001°49'1019.7
2017-May-16 09:01N 37°17' E 002°01'1019.9
2017-May-16 08:30N 37°19' E 002°13'1319.9
2017-May-16 07:51N 37°22' E 002°29'719.7
2017-May-16 07:30N 37°24' E 002°37'1019.9
2017-May-16 07:00N 37°26' E 002°50'2019.9
2017-May-16 05:59N 37°31' E 003°14'2119.8
2017-May-16 04:57N 37°36' E 003°39'919.8
2017-May-16 04:30N 37°39' E 003°50'1819.7
2017-May-16 03:34N 37°43' E 004°13'419.5
2017-May-16 03:22N 37°44' E 004°18'719.3
2017-May-16 03:00N 37°46' E 004°26'1019.5
2017-May-16 02:30N 37°48' E 004°38'1019.4
2017-May-16 02:00N 37°51' E 004°50'1019.4
2017-May-16 01:30N 37°53' E 005°02'1119.4
2017-May-16 00:58N 37°55' E 005°15'919.4
2017-May-16 00:30N 37°57' E 005°26'1019.6
2017-May-16 00:00N 37°60' E 005°38'1019.3
2017-May-15 23:30N 38°02' E 005°50'1019.3
2017-May-15 23:00N 38°05' E 006°02'1019.5
2017-May-15 22:31N 38°07' E 006°14'10620.4
2017-May-15 17:18N 38°33' E 008°25'620.4
2017-May-15 17:00N 38°35' E 008°33'1020.1
2017-May-15 16:30N 38°39' E 008°44'1220.0
2017-May-15 15:53N 38°44' E 008°59'718.6
2017-May-15 15:30N 38°50' E 009°04'1019.8
2017-May-15 15:00N 38°60' E 009°07'917.8
2017-May-15 14:30N 39°09' E 009°06'4 4.4
2017-May-15 13:30N 39°13' E 009°04'0 0.0
2017-May-15 13:00N 39°13' E 009°04'0 0.0
2017-May-15 12:30N 39°13' E 009°04'0 0.0
2017-May-15 12:00N 39°13' E 009°04'0 0.0
2017-May-15 11:30N 39°13' E 009°04'0 0.0
2017-May-15 11:00N 39°13' E 009°04'0 0.0
2017-May-15 10:30N 39°13' E 009°04'0 0.0
2017-May-15 10:00N 39°13' E 009°04'0 0.0
2017-May-15 09:30N 39°13' E 009°04'0 0.0
2017-May-15 09:00N 39°13' E 009°04'0 0.0
2017-May-15 08:30N 39°13' E 009°04'0 0.0
2017-May-15 08:00N 39°13' E 009°04'0 0.0
2017-May-15 07:30N 39°13' E 009°04'0 0.0
2017-May-15 07:00N 39°13' E 009°04'0 0.0
2017-May-15 06:30N 39°13' E 009°04'0 0.0
2017-May-15 06:00N 39°13' E 009°04'0 0.0
2017-May-15 05:30N 39°13' E 009°04'0 0.0
2017-May-15 05:00N 39°13' E 009°04'0 0.0
2017-May-15 04:30N 39°13' E 009°04'0 0.0
2017-May-15 04:00N 39°13' E 009°04'0 0.0
2017-May-15 03:30N 39°13' E 009°04'0 0.0
2017-May-15 03:00N 39°13' E 009°04'0 0.0
2017-May-15 02:30N 39°13' E 009°04'0 0.0
2017-May-15 02:00N 39°13' E 009°04'0 0.0
2017-May-15 01:30N 39°13' E 009°04'0 0.0
2017-May-15 01:00N 39°13' E 009°04'0 0.0
2017-May-15 00:30N 39°13' E 009°04'0 0.0
2017-May-15 00:00N 39°13' E 009°04'0 0.0
2017-May-14 23:30N 39°13' E 009°04'0 0.0
2017-May-14 23:00N 39°13' E 009°04'0 0.0
2017-May-14 22:30N 39°13' E 009°04'0 0.4
2017-May-14 21:59N 39°13' E 009°04'4 7.4
2017-May-14 21:30N 39°09' E 009°06'3 5.9
2017-May-14 21:00N 39°06' E 009°06'0 0.6
2017-May-14 20:30N 39°06' E 009°07'3 5.3
2017-May-14 19:59N 39°04' E 009°07'2 4.1
2017-May-14 19:29N 39°02' E 009°07'613.1
2017-May-14 19:00N 38°55' E 009°06'917.4
2017-May-14 18:30N 38°47' E 009°01'917.0
2017-May-14 18:00N 38°44' E 008°51'1017.9
2017-May-14 17:27N 38°42' E 008°39'34118.1
2017-May-13 22:36N 39°21' E 001°23'7418.7
2017-May-13 18:38N 39°25' W 000°13'217.5
2017-May-13 18:30N 39°25' W 000°16'3 6.0
2017-May-13 17:58N 39°27' W 000°19'0 0.0
2017-May-13 17:28N 39°27' W 000°19'0 0.0
2017-May-13 16:58N 39°27' W 000°19'0 0.0
2017-May-13 16:28N 39°27' W 000°19'0 0.0
2017-May-13 15:58N 39°27' W 000°19'0 0.0
2017-May-13 15:28N 39°27' W 000°19'0 0.0
2017-May-13 14:58N 39°27' W 000°19'0 0.0
2017-May-13 14:28N 39°27' W 000°19'0 0.0
2017-May-13 13:28N 39°27' W 000°19'0 0.0
2017-May-13 12:58N 39°27' W 000°19'0 0.0
2017-May-13 12:28N 39°27' W 000°19'0 0.0
2017-May-13 11:58N 39°27' W 000°19'0 0.0
2017-May-13 11:28N 39°27' W 000°19'0 0.0
2017-May-13 10:58N 39°27' W 000°19'0 0.0
2017-May-13 10:28N 39°27' W 000°19'0 0.0
2017-May-13 09:58N 39°27' W 000°19'0 0.0
2017-May-13 09:28N 39°27' W 000°19'0 0.0
2017-May-13 08:58N 39°27' W 000°19'0 0.0
2017-May-13 08:28N 39°27' W 000°19'0 0.0
2017-May-13 07:58N 39°27' W 000°19'0 0.0
2017-May-13 07:28N 39°27' W 000°19'0 0.0
2017-May-13 06:58N 39°27' W 000°19'0 0.0
2017-May-13 06:28N 39°27' W 000°19'0 0.0
2017-May-13 05:55N 39°27' W 000°19'0 0.0
2017-May-13 05:28N 39°27' W 000°19'0 0.0
2017-May-13 04:58N 39°27' W 000°19'0 0.0
2017-May-13 04:28N 39°27' W 000°19'0 0.0
2017-May-13 03:58N 39°27' W 000°19'0 0.0
2017-May-13 03:28N 39°27' W 000°19'0 0.0
2017-May-13 02:58N 39°27' W 000°19'0 0.0
2017-May-13 02:28N 39°27' W 000°19'0 0.0
2017-May-13 01:58N 39°27' W 000°19'0 0.0
2017-May-13 01:28N 39°27' W 000°19'0 0.0
2017-May-13 00:58N 39°27' W 000°19'0 0.0
2017-May-13 00:28N 39°27' W 000°19'0 0.0
2017-May-12 23:58N 39°27' W 000°19'0 0.0
2017-May-12 23:28N 39°27' W 000°19'0 0.0
2017-May-12 22:58N 39°27' W 000°19'0 0.0
2017-May-12 22:28N 39°27' W 000°19'0 0.0
2017-May-12 21:58N 39°27' W 000°19'0 0.0
2017-May-12 21:28N 39°27' W 000°19'0 0.0
2017-May-12 20:58N 39°27' W 000°19'0 0.0
2017-May-12 20:28N 39°27' W 000°19'0 0.0
2017-May-12 19:58N 39°27' W 000°19'0 0.0
2017-May-12 19:28N 39°27' W 000°19'0 0.0
2017-May-12 19:01N 39°27' W 000°19'0 0.0
2017-May-12 18:31N 39°27' W 000°19'0 0.0
2017-May-12 18:01N 39°27' W 000°19'0 0.0
2017-May-12 17:30N 39°27' W 000°19'0 0.0
2017-May-12 17:00N 39°27' W 000°19'0 0.0
2017-May-12 16:30N 39°27' W 000°19'0 0.2
2017-May-12 16:01N 39°27' W 000°19'3 6.6
2017-May-12 15:31N 39°25' W 000°15'8212.8
2017-May-12 09:09N 38°04' W 000°06'318.6
2017-May-12 09:01N 38°02' W 000°08'1018.6
2017-May-12 08:30N 37°54' W 000°14'1018.6
2017-May-12 07:57N 37°45' W 000°21'818.7
2017-May-12 07:30N 37°38' W 000°27'918.6
2017-May-12 07:01N 37°31' W 000°34'918.9
2017-May-12 06:31N 37°24' W 000°43'918.6
2017-May-12 06:00N 37°18' W 000°52'919.0
2017-May-12 05:30N 37°11' W 001°00'20519.8
2017-May-11 19:10N 36°02' W 005°01'722.2
2017-May-11 18:52N 36°01' W 005°09'822.0
2017-May-11 18:31N 35°60' W 005°18'184 8.6
2017-May-10 21:03N 36°26' W 009°04'120.5
2017-May-10 21:00N 36°26' W 009°05'7218.1
2017-May-10 17:03N 37°32' W 009°41'119.6
2017-May-10 17:00N 37°33' W 009°41'1019.6
2017-May-10 16:30N 37°43' W 009°40'1019.5
2017-May-10 16:00N 37°52' W 009°40'1019.7
2017-May-10 15:30N 38°02' W 009°40'1019.4
2017-May-10 15:01N 38°12' W 009°40'1918.6
2017-May-10 14:01N 38°29' W 009°32'917.5
2017-May-10 13:30N 38°37' W 009°26'2 4.8
2017-May-10 13:01N 38°39' W 009°24'5 8.9
2017-May-10 12:30N 38°40' W 009°19'712.1
2017-May-10 11:58N 38°41' W 009°11'1 1.7
2017-May-10 11:29N 38°42' W 009°10'0 0.0
2017-May-10 09:37N 38°42' W 009°10'0 0.0
2017-May-10 09:16N 38°42' W 009°10'0 0.0
2017-May-10 08:58N 38°42' W 009°10'0 0.0
2017-May-10 08:25N 38°42' W 009°10'0 0.0
2017-May-10 07:13N 38°42' W 009°10'0 0.0
2017-May-10 06:58N 38°42' W 009°10'0 0.0
2017-May-10 06:07N 38°42' W 009°10'0 0.0
2017-May-10 05:49N 38°42' W 009°10'0 0.0
2017-May-10 03:37N 38°42' W 009°10'0 0.0
2017-May-10 03:16N 38°42' W 009°10'0 0.0
2017-May-10 02:55N 38°42' W 009°10'0 0.0
2017-May-10 02:25N 38°42' W 009°10'0 0.0
2017-May-10 01:49N 38°42' W 009°10'0 0.0
2017-May-10 00:57N 38°42' W 009°10'  
Track history (hours):
 
Tides and Currents Weather Stations Pressure Air Temp Water Temp Dewpoint Dewpoint Depression Visibility Wind Speed Wind Dir Waves Ship Positions

Manila Express

Last reported at 2017-May-20 00:38 UTC. Time now 2017-May-23 07:01 UTC.
Position N 27°49' W 013°44'.

Length 260 m; draft 7.4 m.

Type: Cargo ship. MMSI: 477830800.

Date/timePositionNaut miles runAvg speedWind from/ knotsBaromVisibWave heightAir tempDewpointWater temp
2017-May-20 00:38N 27°49' W 013°44'213.2
2017-May-20 00:30N 27°51' W 013°43'1113.2
2017-May-19 23:40N 28°00' W 013°37'213.5
2017-May-19 23:29N 28°02' W 013°35'713.4
2017-May-19 23:00N 28°08' W 013°31'713.2
2017-May-19 22:30N 28°14' W 013°27'813.1
2017-May-19 21:53N 28°20' W 013°22'2013.0
2017-May-19 20:20N 28°37' W 013°10'18912.6
2017-May-19 05:22N 31°18' W 011°15'39712.0
2017-May-17 20:09N 35°58' W 005°36'110.0
2017-May-17 20:00N 35°58' W 005°35'510.5
2017-May-17 19:31N 36°00' W 005°29'5 9.8
2017-May-17 19:00N 36°03' W 005°24'510.4
2017-May-17 18:31N 36°08' W 005°24'1 1.7
2017-May-17 17:42N 36°09' W 005°25'0 0.0
2017-May-17 05:35N 36°09' W 005°25'0 0.1
2017-May-17 05:25N 36°09' W 005°25'0 0.5
2017-May-17 05:00N 36°09' W 005°25'2 4.3
2017-May-17 04:30N 36°07' W 005°24'3 5.0
2017-May-17 04:00N 36°05' W 005°22'612.8
2017-May-17 03:30N 36°05' W 005°14'713.8
2017-May-17 03:00N 36°06' W 005°06'916.6
2017-May-17 02:28N 36°07' W 004°54'20419.9
2017-May-16 16:11N 36°45' W 000°45'621.0
2017-May-16 15:54N 36°46' W 000°38'3120.5
2017-May-16 14:24N 36°54' W 000°00'1213.1
2017-May-16 13:30N 36°56' E 000°14'1019.4
2017-May-16 13:00N 36°59' E 000°26'1019.6
2017-May-16 12:30N 37°01' E 000°38'1019.9
2017-May-16 12:00N 37°04' E 000°50'1019.7
2017-May-16 11:30N 37°06' E 001°02'1019.3
2017-May-16 11:00N 37°08' E 001°14'919.2
2017-May-16 10:30N 37°10' E 001°25'1019.2
2017-May-16 10:00N 37°12' E 001°37'1019.3
2017-May-16 09:30N 37°14' E 001°49'1019.7
2017-May-16 09:01N 37°17' E 002°01'1019.9
2017-May-16 08:30N 37°19' E 002°13'1319.9
2017-May-16 07:51N 37°22' E 002°29'719.7
2017-May-16 07:30N 37°24' E 002°37'1019.9
2017-May-16 07:00N 37°26' E 002°50'2019.9
2017-May-16 05:59N 37°31' E 003°14'2119.8
2017-May-16 04:57N 37°36' E 003°39'919.8
2017-May-16 04:30N 37°39' E 003°50'1819.7
2017-May-16 03:34N 37°43' E 004°13'419.5
2017-May-16 03:22N 37°44' E 004°18'719.3
2017-May-16 03:00N 37°46' E 004°26'1019.5
2017-May-16 02:30N 37°48' E 004°38'1019.4
2017-May-16 02:00N 37°51' E 004°50'1019.4
2017-May-16 01:30N 37°53' E 005°02'1119.4
2017-May-16 00:58N 37°55' E 005°15'919.4
2017-May-16 00:30N 37°57' E 005°26'1019.6
2017-May-16 00:00N 37°60' E 005°38'1019.3
2017-May-15 23:30N 38°02' E 005°50'1019.3
2017-May-15 23:00N 38°05' E 006°02'1019.5
2017-May-15 22:31N 38°07' E 006°14'10620.4
2017-May-15 17:18N 38°33' E 008°25'620.4
2017-May-15 17:00N 38°35' E 008°33'1020.1
2017-May-15 16:30N 38°39' E 008°44'1220.0
2017-May-15 15:53N 38°44' E 008°59'718.6
2017-May-15 15:30N 38°50' E 009°04'1019.8
2017-May-15 15:00N 38°60' E 009°07'917.8
2017-May-15 14:30N 39°09' E 009°06'4 4.4
2017-May-15 13:30N 39°13' E 009°04'0 0.0
2017-May-15 13:00N 39°13' E 009°04'0 0.0
2017-May-15 12:30N 39°13' E 009°04'0 0.0
2017-May-15 12:00N 39°13' E 009°04'0 0.0
2017-May-15 11:30N 39°13' E 009°04'0 0.0
2017-May-15 11:00N 39°13' E 009°04'0 0.0
2017-May-15 10:30N 39°13' E 009°04'0 0.0
2017-May-15 10:00N 39°13' E 009°04'0 0.0
2017-May-15 09:30N 39°13' E 009°04'0 0.0
2017-May-15 09:00N 39°13' E 009°04'0 0.0
2017-May-15 08:30N 39°13' E 009°04'0 0.0
2017-May-15 08:00N 39°13' E 009°04'0 0.0
2017-May-15 07:30N 39°13' E 009°04'0 0.0
2017-May-15 07:00N 39°13' E 009°04'0 0.0
2017-May-15 06:30N 39°13' E 009°04'0 0.0
2017-May-15 06:00N 39°13' E 009°04'0 0.0
2017-May-15 05:30N 39°13' E 009°04'0 0.0
2017-May-15 05:00N 39°13' E 009°04'0 0.0
2017-May-15 04:30N 39°13' E 009°04'0 0.0
2017-May-15 04:00N 39°13' E 009°04'0 0.0
2017-May-15 03:30N 39°13' E 009°04'0 0.0
2017-May-15 03:00N 39°13' E 009°04'0 0.0
2017-May-15 02:30N 39°13' E 009°04'0 0.0
2017-May-15 02:00N 39°13' E 009°04'0 0.0
2017-May-15 01:30N 39°13' E 009°04'0 0.0
2017-May-15 01:00N 39°13' E 009°04'0 0.0
2017-May-15 00:30N 39°13' E 009°04'0 0.0
2017-May-15 00:00N 39°13' E 009°04'0 0.0
2017-May-14 23:30N 39°13' E 009°04'0 0.0
2017-May-14 23:00N 39°13' E 009°04'0 0.0
2017-May-14 22:30N 39°13' E 009°04'0 0.4
2017-May-14 21:59N 39°13' E 009°04'4 7.4
2017-May-14 21:30N 39°09' E 009°06'3 5.9
2017-May-14 21:00N 39°06' E 009°06'0 0.6
2017-May-14 20:30N 39°06' E 009°07'3 5.3
2017-May-14 19:59N 39°04' E 009°07'2 4.1
2017-May-14 19:29N 39°02' E 009°07'613.1
2017-May-14 19:00N 38°55' E 009°06'917.4
2017-May-14 18:30N 38°47' E 009°01'917.0
2017-May-14 18:00N 38°44' E 008°51'1017.9
2017-May-14 17:27N 38°42' E 008°39'34118.1
2017-May-13 22:36N 39°21' E 001°23'7418.7
2017-May-13 18:38N 39°25' W 000°13'217.5
2017-May-13 18:30N 39°25' W 000°16'3 6.0
2017-May-13 17:58N 39°27' W 000°19'0 0.0
2017-May-13 17:28N 39°27' W 000°19'0 0.0
2017-May-13 16:58N 39°27' W 000°19'0 0.0
2017-May-13 16:28N 39°27' W 000°19'0 0.0
2017-May-13 15:58N 39°27' W 000°19'0 0.0
2017-May-13 15:28N 39°27' W 000°19'0 0.0
2017-May-13 14:58N 39°27' W 000°19'0 0.0
2017-May-13 14:28N 39°27' W 000°19'0 0.0
2017-May-13 13:28N 39°27' W 000°19'0 0.0
2017-May-13 12:58N 39°27' W 000°19'0 0.0
2017-May-13 12:28N 39°27' W 000°19'0 0.0
2017-May-13 11:58N 39°27' W 000°19'0 0.0
2017-May-13 11:28N 39°27' W 000°19'0 0.0
2017-May-13 10:58N 39°27' W 000°19'0 0.0
2017-May-13 10:28N 39°27' W 000°19'0 0.0
2017-May-13 09:58N 39°27' W 000°19'0 0.0
2017-May-13 09:28N 39°27' W 000°19'0 0.0
2017-May-13 08:58N 39°27' W 000°19'0 0.0
2017-May-13 08:28N 39°27' W 000°19'0 0.0
2017-May-13 07:58N 39°27' W 000°19'0 0.0
2017-May-13 07:28N 39°27' W 000°19'0 0.0
2017-May-13 06:58N 39°27' W 000°19'0 0.0
2017-May-13 06:28N 39°27' W 000°19'0 0.0
2017-May-13 05:55N 39°27' W 000°19'0 0.0
2017-May-13 05:28N 39°27' W 000°19'0 0.0
2017-May-13 04:58N 39°27' W 000°19'0 0.0
2017-May-13 04:28N 39°27' W 000°19'0 0.0
2017-May-13 03:58N 39°27' W 000°19'0 0.0
2017-May-13 03:28N 39°27' W 000°19'0 0.0
2017-May-13 02:58N 39°27' W 000°19'0 0.0
2017-May-13 02:28N 39°27' W 000°19'0 0.0
2017-May-13 01:58N 39°27' W 000°19'0 0.0
2017-May-13 01:28N 39°27' W 000°19'0 0.0
2017-May-13 00:58N 39°27' W 000°19'0 0.0
2017-May-13 00:28N 39°27' W 000°19'0 0.0
2017-May-12 23:58N 39°27' W 000°19'0 0.0
2017-May-12 23:28N 39°27' W 000°19'0 0.0
2017-May-12 22:58N 39°27' W 000°19'0 0.0
2017-May-12 22:28N 39°27' W 000°19'0 0.0
2017-May-12 21:58N 39°27' W 000°19'0 0.0
2017-May-12 21:28N 39°27' W 000°19'0 0.0
2017-May-12 20:58N 39°27' W 000°19'0 0.0
2017-May-12 20:28N 39°27' W 000°19'0 0.0
2017-May-12 19:58N 39°27' W 000°19'0 0.0
2017-May-12 19:28N 39°27' W 000°19'0 0.0
2017-May-12 19:01N 39°27' W 000°19'0 0.0
2017-May-12 18:31N 39°27' W 000°19'0 0.0
2017-May-12 18:01N 39°27' W 000°19'0 0.0
2017-May-12 17:30N 39°27' W 000°19'0 0.0
2017-May-12 17:00N 39°27' W 000°19'0 0.0
2017-May-12 16:30N 39°27' W 000°19'0 0.2
2017-May-12 16:01N 39°27' W 000°19'3 6.6
2017-May-12 15:31N 39°25' W 000°15'8212.8
2017-May-12 09:09N 38°04' W 000°06'318.6
2017-May-12 09:01N 38°02' W 000°08'1018.6
2017-May-12 08:30N 37°54' W 000°14'1018.6
2017-May-12 07:57N 37°45' W 000°21'818.7
2017-May-12 07:30N 37°38' W 000°27'918.6
2017-May-12 07:01N 37°31' W 000°34'918.9
2017-May-12 06:31N 37°24' W 000°43'918.6
2017-May-12 06:00N 37°18' W 000°52'919.0
2017-May-12 05:30N 37°11' W 001°00'20519.8
2017-May-11 19:10N 36°02' W 005°01'722.2
2017-May-11 18:52N 36°01' W 005°09'822.0
2017-May-11 18:31N 35°60' W 005°18'184 8.6
2017-May-10 21:03N 36°26' W 009°04'120.5
2017-May-10 21:00N 36°26' W 009°05'7218.1
2017-May-10 17:03N 37°32' W 009°41'119.6
2017-May-10 17:00N 37°33' W 009°41'1019.6
2017-May-10 16:30N 37°43' W 009°40'1019.5
2017-May-10 16:00N 37°52' W 009°40'1019.7
2017-May-10 15:30N 38°02' W 009°40'1019.4
2017-May-10 15:01N 38°12' W 009°40'1918.6
2017-May-10 14:01N 38°29' W 009°32'917.5
2017-May-10 13:30N 38°37' W 009°26'2 4.8
2017-May-10 13:01N 38°39' W 009°24'5 8.9
2017-May-10 12:30N 38°40' W 009°19'712.1
2017-May-10 11:58N 38°41' W 009°11'1 1.7
2017-May-10 11:29N 38°42' W 009°10'0 0.0
2017-May-10 09:37N 38°42' W 009°10'0 0.0
2017-May-10 09:16N 38°42' W 009°10'0 0.0
2017-May-10 08:58N 38°42' W 009°10'0 0.0
2017-May-10 08:25N 38°42' W 009°10'0 0.0
2017-May-10 07:13N 38°42' W 009°10'0 0.0
2017-May-10 06:58N 38°42' W 009°10'0 0.0
2017-May-10 06:07N 38°42' W 009°10'0 0.0
2017-May-10 05:49N 38°42' W 009°10'0 0.0
2017-May-10 03:37N 38°42' W 009°10'0 0.0
2017-May-10 03:16N 38°42' W 009°10'0 0.0
2017-May-10 02:55N 38°42' W 009°10'0 0.0
2017-May-10 02:25N 38°42' W 009°10'0 0.0
2017-May-10 01:49N 38°42' W 009°10'0 0.0
2017-May-10 00:57N 38°42' W 009°10'  

Dump ship's entire track history